sensor_id;sensor_type;location;lat;lon;timestamp;P1;durP1;ratioP1;P2;durP2;ratioP2
51312;SDS011;37397;53.226;10.400;2022-07-30T00:01:13;5.88;;;2.63;;
51312;SDS011;37397;53.226;10.400;2022-07-30T00:03:40;6.75;;;2.55;;
51312;SDS011;37397;53.226;10.400;2022-07-30T00:06:06;7.20;;;2.40;;
51312;SDS011;37397;53.226;10.400;2022-07-30T00:08:33;5.93;;;2.60;;
51312;SDS011;37397;53.226;10.400;2022-07-30T00:11:00;6.43;;;2.65;;
51312;SDS011;37397;53.226;10.400;2022-07-30T00:13:26;5.70;;;2.50;;
51312;SDS011;37397;53.226;10.400;2022-07-30T00:15:53;6.57;;;2.58;;
51312;SDS011;37397;53.226;10.400;2022-07-30T00:18:19;6.60;;;2.55;;
51312;SDS011;37397;53.226;10.400;2022-07-30T00:20:47;5.85;;;2.70;;
51312;SDS011;37397;53.226;10.400;2022-07-30T00:23:14;6.85;;;2.80;;
51312;SDS011;37397;53.226;10.400;2022-07-30T00:25:41;4.38;;;2.50;;
51312;SDS011;37397;53.226;10.400;2022-07-30T00:28:07;6.07;;;2.78;;
51312;SDS011;37397;53.226;10.400;2022-07-30T00:30:34;3.92;;;2.25;;
51312;SDS011;37397;53.226;10.400;2022-07-30T00:33:00;5.78;;;2.50;;
51312;SDS011;37397;53.226;10.400;2022-07-30T00:35:27;6.82;;;2.63;;
51312;SDS011;37397;53.226;10.400;2022-07-30T00:37:53;7.35;;;2.50;;
51312;SDS011;37397;53.226;10.400;2022-07-30T00:40:20;5.28;;;2.50;;
51312;SDS011;37397;53.226;10.400;2022-07-30T00:42:47;5.68;;;2.50;;
51312;SDS011;37397;53.226;10.400;2022-07-30T00:45:14;6.93;;;2.47;;
51312;SDS011;37397;53.226;10.400;2022-07-30T00:47:43;4.95;;;2.70;;
51312;SDS011;37397;53.226;10.400;2022-07-30T00:50:11;4.30;;;2.38;;
51312;SDS011;37397;53.226;10.400;2022-07-30T00:52:39;7.45;;;2.50;;
51312;SDS011;37397;53.226;10.400;2022-07-30T00:55:08;6.80;;;2.35;;
51312;SDS011;37397;53.226;10.400;2022-07-30T00:57:36;5.97;;;2.65;;
51312;SDS011;37397;53.226;10.400;2022-07-30T01:00:05;6.97;;;2.40;;
51312;SDS011;37397;53.226;10.400;2022-07-30T01:02:34;6.68;;;2.67;;
51312;SDS011;37397;53.226;10.400;2022-07-30T01:05:00;6.50;;;2.75;;
51312;SDS011;37397;53.226;10.400;2022-07-30T01:07:27;5.82;;;2.58;;
51312;SDS011;37397;53.226;10.400;2022-07-30T01:09:54;7.35;;;2.70;;
51312;SDS011;37397;53.226;10.400;2022-07-30T01:12:22;7.88;;;2.63;;
51312;SDS011;37397;53.226;10.400;2022-07-30T01:14:50;6.28;;;2.50;;
51312;SDS011;37397;53.226;10.400;2022-07-30T01:17:18;5.22;;;2.47;;
51312;SDS011;37397;53.226;10.400;2022-07-30T01:19:45;5.53;;;2.70;;
51312;SDS011;37397;53.226;10.400;2022-07-30T01:25:19;4.35;;;2.50;;
51312;SDS011;37397;53.226;10.400;2022-07-30T01:28:07;6.45;;;2.28;;
51312;SDS011;37397;53.226;10.400;2022-07-30T01:30:38;6.78;;;2.85;;
51312;SDS011;37397;53.226;10.400;2022-07-30T01:33:10;6.28;;;2.35;;
51312;SDS011;37397;53.226;10.400;2022-07-30T01:35:40;4.53;;;2.42;;
51312;SDS011;37397;53.226;10.400;2022-07-30T01:38:10;5.72;;;2.78;;
51312;SDS011;37397;53.226;10.400;2022-07-30T01:40:39;8.80;;;2.40;;
51312;SDS011;37397;53.226;10.400;2022-07-30T01:43:08;6.22;;;2.78;;
51312;SDS011;37397;53.226;10.400;2022-07-30T01:45:36;8.18;;;2.78;;
51312;SDS011;37397;53.226;10.400;2022-07-30T01:48:10;5.10;;;2.28;;
51312;SDS011;37397;53.226;10.400;2022-07-30T01:50:45;5.75;;;2.53;;
51312;SDS011;37397;53.226;10.400;2022-07-30T01:53:15;4.65;;;2.28;;
51312;SDS011;37397;53.226;10.400;2022-07-30T01:55:46;6.10;;;2.55;;
51312;SDS011;37397;53.226;10.400;2022-07-30T01:58:15;6.82;;;2.33;;
51312;SDS011;37397;53.226;10.400;2022-07-30T02:00:47;6.22;;;2.80;;
51312;SDS011;37397;53.226;10.400;2022-07-30T02:03:15;6.53;;;3.03;;
51312;SDS011;37397;53.226;10.400;2022-07-30T02:08:23;6.65;;;2.53;;
51312;SDS011;37397;53.226;10.400;2022-07-30T02:11:03;7.43;;;2.38;;
51312;SDS011;37397;53.226;10.400;2022-07-30T02:13:34;9.45;;;2.70;;
51312;SDS011;37397;53.226;10.400;2022-07-30T02:16:23;8.35;;;3.10;;
51312;SDS011;37397;53.226;10.400;2022-07-30T02:18:56;6.80;;;2.97;;
51312;SDS011;37397;53.226;10.400;2022-07-30T02:21:36;8.02;;;2.40;;
51312;SDS011;37397;53.226;10.400;2022-07-30T02:24:17;6.78;;;2.65;;
51312;SDS011;37397;53.226;10.400;2022-07-30T02:26:52;7.07;;;2.88;;
51312;SDS011;37397;53.226;10.400;2022-07-30T02:29:26;5.25;;;2.45;;
51312;SDS011;37397;53.226;10.400;2022-07-30T02:31:55;6.18;;;2.63;;
51312;SDS011;37397;53.226;10.400;2022-07-30T02:34:23;6.95;;;2.30;;
51312;SDS011;37397;53.226;10.400;2022-07-30T02:36:50;5.97;;;2.60;;
51312;SDS011;37397;53.226;10.400;2022-07-30T02:39:20;5.85;;;2.72;;
51312;SDS011;37397;53.226;10.400;2022-07-30T02:41:48;6.95;;;2.60;;
51312;SDS011;37397;53.226;10.400;2022-07-30T02:44:16;5.78;;;2.35;;
51312;SDS011;37397;53.226;10.400;2022-07-30T02:46:45;4.88;;;2.45;;
51312;SDS011;37397;53.226;10.400;2022-07-30T02:49:37;4.95;;;2.45;;
51312;SDS011;37397;53.226;10.400;2022-07-30T02:52:06;7.63;;;2.65;;
51312;SDS011;37397;53.226;10.400;2022-07-30T02:54:38;7.30;;;2.30;;
51312;SDS011;37397;53.226;10.400;2022-07-30T02:57:07;3.92;;;2.25;;
51312;SDS011;37397;53.226;10.400;2022-07-30T02:59:36;4.80;;;2.50;;
51312;SDS011;37397;53.226;10.400;2022-07-30T03:02:06;5.85;;;2.40;;
51312;SDS011;37397;53.226;10.400;2022-07-30T03:04:35;7.43;;;2.80;;
51312;SDS011;37397;53.226;10.400;2022-07-30T03:07:03;4.88;;;2.45;;
51312;SDS011;37397;53.226;10.400;2022-07-30T03:09:34;5.30;;;2.50;;
51312;SDS011;37397;53.226;10.400;2022-07-30T03:12:17;6.68;;;2.75;;
51312;SDS011;37397;53.226;10.400;2022-07-30T03:14:45;5.30;;;2.58;;
51312;SDS011;37397;53.226;10.400;2022-07-30T03:17:11;6.63;;;2.60;;
51312;SDS011;37397;53.226;10.400;2022-07-30T03:19:41;7.75;;;2.72;;
51312;SDS011;37397;53.226;10.400;2022-07-30T03:22:10;4.55;;;2.42;;
51312;SDS011;37397;53.226;10.400;2022-07-30T03:24:40;8.10;;;2.78;;
51312;SDS011;37397;53.226;10.400;2022-07-30T03:27:09;6.03;;;2.60;;
51312;SDS011;37397;53.226;10.400;2022-07-30T03:29:36;6.35;;;2.25;;
51312;SDS011;37397;53.226;10.400;2022-07-30T03:32:04;7.50;;;2.90;;
51312;SDS011;37397;53.226;10.400;2022-07-30T03:34:32;5.93;;;2.50;;
51312;SDS011;37397;53.226;10.400;2022-07-30T03:37:02;5.75;;;3.03;;
51312;SDS011;37397;53.226;10.400;2022-07-30T03:39:33;5.57;;;2.42;;
51312;SDS011;37397;53.226;10.400;2022-07-30T03:42:02;6.28;;;3.17;;
51312;SDS011;37397;53.226;10.400;2022-07-30T03:44:29;6.22;;;2.70;;
51312;SDS011;37397;53.226;10.400;2022-07-30T03:46:58;3.95;;;2.30;;
51312;SDS011;37397;53.226;10.400;2022-07-30T03:49:28;7.45;;;2.88;;
51312;SDS011;37397;53.226;10.400;2022-07-30T03:51:54;5.82;;;2.45;;
51312;SDS011;37397;53.226;10.400;2022-07-30T03:54:22;8.00;;;2.50;;
51312;SDS011;37397;53.226;10.400;2022-07-30T03:57:13;3.92;;;2.40;;
51312;SDS011;37397;53.226;10.400;2022-07-30T03:59:46;5.80;;;2.65;;
51312;SDS011;37397;53.226;10.400;2022-07-30T04:02:12;8.98;;;3.15;;
51312;SDS011;37397;53.226;10.400;2022-07-30T04:05:02;5.88;;;2.47;;
51312;SDS011;37397;53.226;10.400;2022-07-30T04:07:29;6.93;;;2.72;;
51312;SDS011;37397;53.226;10.400;2022-07-30T04:09:55;4.75;;;2.70;;
51312;SDS011;37397;53.226;10.400;2022-07-30T04:12:47;6.25;;;2.90;;
51312;SDS011;37397;53.226;10.400;2022-07-30T04:15:14;5.75;;;2.80;;
51312;SDS011;37397;53.226;10.400;2022-07-30T04:18:01;4.53;;;2.75;;
51312;SDS011;37397;53.226;10.400;2022-07-30T04:20:38;7.25;;;3.00;;
51312;SDS011;37397;53.226;10.400;2022-07-30T04:23:07;6.53;;;3.00;;
51312;SDS011;37397;53.226;10.400;2022-07-30T04:25:36;5.25;;;2.28;;
51312;SDS011;37397;53.226;10.400;2022-07-30T04:28:03;7.45;;;2.95;;
51312;SDS011;37397;53.226;10.400;2022-07-30T04:30:31;6.00;;;2.67;;
51312;SDS011;37397;53.226;10.400;2022-07-30T04:33:01;6.13;;;2.78;;
51312;SDS011;37397;53.226;10.400;2022-07-30T04:35:45;8.55;;;3.28;;
51312;SDS011;37397;53.226;10.400;2022-07-30T04:38:24;5.55;;;2.55;;
51312;SDS011;37397;53.226;10.400;2022-07-30T04:40:50;5.63;;;2.70;;
51312;SDS011;37397;53.226;10.400;2022-07-30T04:43:17;6.50;;;2.65;;
51312;SDS011;37397;53.226;10.400;2022-07-30T04:45:44;7.15;;;2.95;;
51312;SDS011;37397;53.226;10.400;2022-07-30T04:48:10;5.55;;;2.92;;
51312;SDS011;37397;53.226;10.400;2022-07-30T04:50:40;6.07;;;2.80;;
51312;SDS011;37397;53.226;10.400;2022-07-30T04:53:13;8.20;;;3.05;;
51312;SDS011;37397;53.226;10.400;2022-07-30T04:55:47;5.05;;;2.70;;
51312;SDS011;37397;53.226;10.400;2022-07-30T04:58:15;7.72;;;2.95;;
51312;SDS011;37397;53.226;10.400;2022-07-30T05:00:45;7.78;;;2.72;;
51312;SDS011;37397;53.226;10.400;2022-07-30T05:03:15;8.93;;;2.78;;
51312;SDS011;37397;53.226;10.400;2022-07-30T05:05:48;5.57;;;2.20;;
51312;SDS011;37397;53.226;10.400;2022-07-30T05:08:23;6.05;;;2.67;;
51312;SDS011;37397;53.226;10.400;2022-07-30T05:10:51;6.38;;;2.80;;
51312;SDS011;37397;53.226;10.400;2022-07-30T05:13:18;5.03;;;2.30;;
51312;SDS011;37397;53.226;10.400;2022-07-30T05:15:47;6.38;;;2.60;;
51312;SDS011;37397;53.226;10.400;2022-07-30T05:18:16;6.40;;;2.70;;
51312;SDS011;37397;53.226;10.400;2022-07-30T05:20:45;5.82;;;2.90;;
51312;SDS011;37397;53.226;10.400;2022-07-30T05:23:33;5.82;;;2.63;;
51312;SDS011;37397;53.226;10.400;2022-07-30T05:26:11;5.72;;;2.83;;
51312;SDS011;37397;53.226;10.400;2022-07-30T05:28:41;4.70;;;2.30;;
51312;SDS011;37397;53.226;10.400;2022-07-30T05:31:12;5.80;;;2.50;;
51312;SDS011;37397;53.226;10.400;2022-07-30T05:33:45;5.82;;;2.80;;
51312;SDS011;37397;53.226;10.400;2022-07-30T05:36:15;5.03;;;2.70;;
51312;SDS011;37397;53.226;10.400;2022-07-30T05:38:42;6.60;;;2.60;;
51312;SDS011;37397;53.226;10.400;2022-07-30T05:41:32;5.38;;;2.35;;
51312;SDS011;37397;53.226;10.400;2022-07-30T05:44:12;6.68;;;2.55;;
51312;SDS011;37397;53.226;10.400;2022-07-30T05:46:38;6.90;;;2.95;;
51312;SDS011;37397;53.226;10.400;2022-07-30T05:49:05;6.18;;;2.63;;
51312;SDS011;37397;53.226;10.400;2022-07-30T05:51:32;4.70;;;2.70;;
51312;SDS011;37397;53.226;10.400;2022-07-30T05:53:58;6.00;;;2.80;;
51312;SDS011;37397;53.226;10.400;2022-07-30T05:56:37;5.13;;;2.50;;
51312;SDS011;37397;53.226;10.400;2022-07-30T05:59:13;5.93;;;2.72;;
51312;SDS011;37397;53.226;10.400;2022-07-30T06:01:59;5.05;;;2.65;;
51312;SDS011;37397;53.226;10.400;2022-07-30T06:04:37;5.57;;;2.65;;
51312;SDS011;37397;53.226;10.400;2022-07-30T06:07:11;4.95;;;2.70;;
51312;SDS011;37397;53.226;10.400;2022-07-30T06:09:38;6.35;;;2.80;;
51312;SDS011;37397;53.226;10.400;2022-07-30T06:12:06;6.28;;;2.47;;
51312;SDS011;37397;53.226;10.400;2022-07-30T06:14:33;6.70;;;3.05;;
51312;SDS011;37397;53.226;10.400;2022-07-30T06:17:00;5.72;;;2.88;;
51312;SDS011;37397;53.226;10.400;2022-07-30T06:19:43;7.15;;;3.22;;
51312;SDS011;37397;53.226;10.400;2022-07-30T06:22:10;5.25;;;2.40;;
51312;SDS011;37397;53.226;10.400;2022-07-30T06:24:42;5.60;;;2.97;;
51312;SDS011;37397;53.226;10.400;2022-07-30T06:27:15;4.82;;;2.80;;
51312;SDS011;37397;53.226;10.400;2022-07-30T06:29:41;7.07;;;2.85;;
51312;SDS011;37397;53.226;10.400;2022-07-30T06:32:09;6.82;;;2.90;;
51312;SDS011;37397;53.226;10.400;2022-07-30T06:34:36;5.47;;;2.65;;
51312;SDS011;37397;53.226;10.400;2022-07-30T06:37:02;5.00;;;2.95;;
51312;SDS011;37397;53.226;10.400;2022-07-30T06:39:30;5.65;;;2.55;;
51312;SDS011;37397;53.226;10.400;2022-07-30T06:45:25;5.43;;;2.70;;
51312;SDS011;37397;53.226;10.400;2022-07-30T06:48:12;4.78;;;2.40;;
51312;SDS011;37397;53.226;10.400;2022-07-30T06:50:39;5.32;;;2.88;;
51312;SDS011;37397;53.226;10.400;2022-07-30T06:53:09;6.32;;;2.72;;
51312;SDS011;37397;53.226;10.400;2022-07-30T06:55:55;7.35;;;2.90;;
51312;SDS011;37397;53.226;10.400;2022-07-30T06:58:32;6.32;;;2.55;;
51312;SDS011;37397;53.226;10.400;2022-07-30T07:01:28;4.47;;;2.50;;
51312;SDS011;37397;53.226;10.400;2022-07-30T07:03:56;4.65;;;2.75;;
51312;SDS011;37397;53.226;10.400;2022-07-30T07:06:22;7.05;;;2.88;;
51312;SDS011;37397;53.226;10.400;2022-07-30T07:08:49;5.68;;;3.08;;
51312;SDS011;37397;53.226;10.400;2022-07-30T07:11:22;5.90;;;2.72;;
51312;SDS011;37397;53.226;10.400;2022-07-30T07:13:52;5.63;;;2.40;;
51312;SDS011;37397;53.226;10.400;2022-07-30T07:16:32;4.88;;;2.85;;
51312;SDS011;37397;53.226;10.400;2022-07-30T07:19:06;6.57;;;3.03;;
51312;SDS011;37397;53.226;10.400;2022-07-30T07:21:33;6.45;;;2.70;;
51312;SDS011;37397;53.226;10.400;2022-07-30T07:24:00;7.07;;;3.08;;
51312;SDS011;37397;53.226;10.400;2022-07-30T07:26:52;7.55;;;2.60;;
51312;SDS011;37397;53.226;10.400;2022-07-30T07:29:19;7.80;;;3.00;;
51312;SDS011;37397;53.226;10.400;2022-07-30T07:31:45;6.93;;;2.75;;
51312;SDS011;37397;53.226;10.400;2022-07-30T07:34:32;6.13;;;2.67;;
51312;SDS011;37397;53.226;10.400;2022-07-30T07:36:59;6.30;;;3.10;;
51312;SDS011;37397;53.226;10.400;2022-07-30T07:39:26;7.15;;;3.10;;
51312;SDS011;37397;53.226;10.400;2022-07-30T07:41:53;7.47;;;2.90;;
51312;SDS011;37397;53.226;10.400;2022-07-30T07:44:22;6.78;;;3.00;;
51312;SDS011;37397;53.226;10.400;2022-07-30T07:46:48;7.30;;;2.90;;
51312;SDS011;37397;53.226;10.400;2022-07-30T07:49:15;7.15;;;3.17;;
51312;SDS011;37397;53.226;10.400;2022-07-30T07:51:45;8.30;;;3.35;;
51312;SDS011;37397;53.226;10.400;2022-07-30T07:54:16;6.30;;;3.10;;
51312;SDS011;37397;53.226;10.400;2022-07-30T07:56:49;6.95;;;3.25;;
51312;SDS011;37397;53.226;10.400;2022-07-30T07:59:20;6.28;;;3.20;;
51312;SDS011;37397;53.226;10.400;2022-07-30T08:01:48;10.13;;;3.28;;
51312;SDS011;37397;53.226;10.400;2022-07-30T08:04:42;9.30;;;3.35;;
51312;SDS011;37397;53.226;10.400;2022-07-30T08:07:08;7.82;;;3.40;;
51312;SDS011;37397;53.226;10.400;2022-07-30T08:09:53;7.70;;;3.47;;
51312;SDS011;37397;53.226;10.400;2022-07-30T08:12:32;11.27;;;3.33;;
51312;SDS011;37397;53.226;10.400;2022-07-30T08:15:19;6.50;;;3.22;;
51312;SDS011;37397;53.226;10.400;2022-07-30T08:18:05;8.70;;;3.30;;
51312;SDS011;37397;53.226;10.400;2022-07-30T08:20:38;4.90;;;3.00;;
51312;SDS011;37397;53.226;10.400;2022-07-30T08:23:05;7.43;;;3.53;;
51312;SDS011;37397;53.226;10.400;2022-07-30T08:25:32;7.85;;;3.13;;
51312;SDS011;37397;53.226;10.400;2022-07-30T08:27:59;8.43;;;3.72;;
51312;SDS011;37397;53.226;10.400;2022-07-30T08:30:28;8.27;;;3.60;;
51312;SDS011;37397;53.226;10.400;2022-07-30T08:32:56;7.15;;;3.20;;
51312;SDS011;37397;53.226;10.400;2022-07-30T08:35:23;7.00;;;3.20;;
51312;SDS011;37397;53.226;10.400;2022-07-30T08:37:50;5.78;;;3.20;;
51312;SDS011;37397;53.226;10.400;2022-07-30T08:40:19;7.45;;;3.22;;
51312;SDS011;37397;53.226;10.400;2022-07-30T08:42:52;7.38;;;3.30;;
51312;SDS011;37397;53.226;10.400;2022-07-30T08:45:18;6.68;;;3.53;;
51312;SDS011;37397;53.226;10.400;2022-07-30T08:48:09;7.13;;;3.20;;
51312;SDS011;37397;53.226;10.400;2022-07-30T08:50:43;7.97;;;3.60;;
51312;SDS011;37397;53.226;10.400;2022-07-30T08:53:33;7.03;;;3.08;;
51312;SDS011;37397;53.226;10.400;2022-07-30T08:56:02;7.07;;;3.42;;
51312;SDS011;37397;53.226;10.400;2022-07-30T08:58:31;8.30;;;3.20;;
51312;SDS011;37397;53.226;10.400;2022-07-30T09:01:02;7.07;;;3.08;;
51312;SDS011;37397;53.226;10.400;2022-07-30T09:03:30;9.70;;;3.83;;
51312;SDS011;37397;53.226;10.400;2022-07-30T09:06:00;7.80;;;3.70;;
51312;SDS011;37397;53.226;10.400;2022-07-30T09:08:27;9.02;;;3.70;;
51312;SDS011;37397;53.226;10.400;2022-07-30T09:10:54;7.35;;;3.30;;
51312;SDS011;37397;53.226;10.400;2022-07-30T09:13:25;8.32;;;3.53;;
51312;SDS011;37397;53.226;10.400;2022-07-30T09:15:55;9.43;;;3.92;;
51312;SDS011;37397;53.226;10.400;2022-07-30T09:18:36;6.30;;;3.40;;
51312;SDS011;37397;53.226;10.400;2022-07-30T09:21:17;7.95;;;3.30;;
51312;SDS011;37397;53.226;10.400;2022-07-30T09:23:54;7.22;;;3.63;;
51312;SDS011;37397;53.226;10.400;2022-07-30T09:26:57;8.05;;;3.17;;
51312;SDS011;37397;53.226;10.400;2022-07-30T09:29:44;9.30;;;3.40;;
51312;SDS011;37397;53.226;10.400;2022-07-30T09:32:47;5.88;;;3.42;;
51312;SDS011;37397;53.226;10.400;2022-07-30T09:35:35;7.72;;;3.50;;
51312;SDS011;37397;53.226;10.400;2022-07-30T09:38:24;7.38;;;3.58;;
51312;SDS011;37397;53.226;10.400;2022-07-30T09:40:55;9.60;;;3.20;;
51312;SDS011;37397;53.226;10.400;2022-07-30T09:43:50;7.53;;;3.35;;
51312;SDS011;37397;53.226;10.400;2022-07-30T09:46:42;6.85;;;3.50;;
51312;SDS011;37397;53.226;10.400;2022-07-30T09:49:21;12.32;;;3.83;;
51312;SDS011;37397;53.226;10.400;2022-07-30T09:51:50;6.90;;;3.75;;
51312;SDS011;37397;53.226;10.400;2022-07-30T09:54:22;8.15;;;3.35;;
51312;SDS011;37397;53.226;10.400;2022-07-30T09:57:19;9.65;;;3.60;;
51312;SDS011;37397;53.226;10.400;2022-07-30T09:59:55;6.07;;;3.25;;
51312;SDS011;37397;53.226;10.400;2022-07-30T10:02:31;9.75;;;3.83;;
51312;SDS011;37397;53.226;10.400;2022-07-30T10:05:17;6.88;;;3.60;;
51312;SDS011;37397;53.226;10.400;2022-07-30T10:07:50;8.10;;;3.30;;
51312;SDS011;37397;53.226;10.400;2022-07-30T10:10:18;9.52;;;3.72;;
51312;SDS011;37397;53.226;10.400;2022-07-30T10:12:51;8.50;;;3.53;;
51312;SDS011;37397;53.226;10.400;2022-07-30T10:15:20;7.00;;;3.70;;
51312;SDS011;37397;53.226;10.400;2022-07-30T10:17:53;6.75;;;3.22;;
51312;SDS011;37397;53.226;10.400;2022-07-30T10:20:42;6.22;;;3.50;;
51312;SDS011;37397;53.226;10.400;2022-07-30T10:23:46;6.63;;;3.38;;
51312;SDS011;37397;53.226;10.400;2022-07-30T10:26:34;8.32;;;3.70;;
51312;SDS011;37397;53.226;10.400;2022-07-30T10:29:30;6.55;;;3.60;;
51312;SDS011;37397;53.226;10.400;2022-07-30T10:31:59;7.22;;;3.70;;
51312;SDS011;37397;53.226;10.400;2022-07-30T10:34:26;9.68;;;3.80;;
51312;SDS011;37397;53.226;10.400;2022-07-30T10:37:00;6.82;;;3.70;;
51312;SDS011;37397;53.226;10.400;2022-07-30T10:39:45;5.93;;;3.75;;
51312;SDS011;37397;53.226;10.400;2022-07-30T10:42:32;10.43;;;3.53;;
51312;SDS011;37397;53.226;10.400;2022-07-30T10:48:14;7.30;;;3.30;;
51312;SDS011;37397;53.226;10.400;2022-07-30T10:50:53;7.97;;;3.60;;
51312;SDS011;37397;53.226;10.400;2022-07-30T10:56:21;11.50;;;3.60;;
51312;SDS011;37397;53.226;10.400;2022-07-30T10:59:02;7.55;;;3.17;;
51312;SDS011;37397;53.226;10.400;2022-07-30T11:04:22;6.18;;;3.67;;
51312;SDS011;37397;53.226;10.400;2022-07-30T11:06:51;7.60;;;3.45;;
51312;SDS011;37397;53.226;10.400;2022-07-30T11:09:34;7.93;;;3.42;;
51312;SDS011;37397;53.226;10.400;2022-07-30T11:12:06;6.55;;;3.40;;
51312;SDS011;37397;53.226;10.400;2022-07-30T11:17:14;7.18;;;3.90;;
51312;SDS011;37397;53.226;10.400;2022-07-30T11:22:28;7.80;;;3.30;;
51312;SDS011;37397;53.226;10.400;2022-07-30T11:24:58;7.60;;;3.63;;
51312;SDS011;37397;53.226;10.400;2022-07-30T11:27:36;6.20;;;3.45;;
51312;SDS011;37397;53.226;10.400;2022-07-30T11:32:47;8.75;;;3.60;;
51312;SDS011;37397;53.226;10.400;2022-07-30T11:35:19;10.70;;;4.10;;
51312;SDS011;37397;53.226;10.400;2022-07-30T11:38:04;11.13;;;3.55;;
51312;SDS011;37397;53.226;10.400;2022-07-30T11:40:35;8.68;;;3.67;;
51312;SDS011;37397;53.226;10.400;2022-07-30T11:46:05;7.72;;;3.38;;
51312;SDS011;37397;53.226;10.400;2022-07-30T11:48:36;5.60;;;3.35;;
51312;SDS011;37397;53.226;10.400;2022-07-30T11:51:05;8.93;;;3.38;;
51312;SDS011;37397;53.226;10.400;2022-07-30T11:53:31;7.13;;;3.83;;
51312;SDS011;37397;53.226;10.400;2022-07-30T11:56:00;6.85;;;3.67;;
51312;SDS011;37397;53.226;10.400;2022-07-30T11:58:29;8.43;;;3.22;;
51312;SDS011;37397;53.226;10.400;2022-07-30T12:00:58;6.15;;;3.40;;
51312;SDS011;37397;53.226;10.400;2022-07-30T12:03:37;9.60;;;3.72;;
51312;SDS011;37397;53.226;10.400;2022-07-30T12:06:06;7.05;;;3.28;;
51312;SDS011;37397;53.226;10.400;2022-07-30T12:08:42;10.43;;;4.20;;
51312;SDS011;37397;53.226;10.400;2022-07-30T12:11:10;6.53;;;3.35;;
51312;SDS011;37397;53.226;10.400;2022-07-30T12:13:37;8.48;;;3.67;;
51312;SDS011;37397;53.226;10.400;2022-07-30T12:16:13;9.05;;;3.80;;
51312;SDS011;37397;53.226;10.400;2022-07-30T12:18:41;5.18;;;3.55;;
51312;SDS011;37397;53.226;10.400;2022-07-30T12:21:09;6.22;;;3.47;;
51312;SDS011;37397;53.226;10.400;2022-07-30T12:26:39;10.52;;;3.63;;
51312;SDS011;37397;53.226;10.400;2022-07-30T12:29:07;8.35;;;3.45;;
51312;SDS011;37397;53.226;10.400;2022-07-30T12:31:39;7.63;;;3.78;;
51312;SDS011;37397;53.226;10.400;2022-07-30T12:34:22;5.40;;;3.78;;
51312;SDS011;37397;53.226;10.400;2022-07-30T12:36:50;9.85;;;3.75;;
51312;SDS011;37397;53.226;10.400;2022-07-30T12:39:22;6.47;;;3.53;;
51312;SDS011;37397;53.226;10.400;2022-07-30T12:41:51;6.65;;;3.40;;
51312;SDS011;37397;53.226;10.400;2022-07-30T12:44:40;7.75;;;3.47;;
51312;SDS011;37397;53.226;10.400;2022-07-30T12:47:28;6.15;;;3.58;;
51312;SDS011;37397;53.226;10.400;2022-07-30T12:49:56;7.30;;;3.83;;
51312;SDS011;37397;53.226;10.400;2022-07-30T12:52:28;7.32;;;3.92;;
51312;SDS011;37397;53.226;10.400;2022-07-30T13:00:17;7.00;;;3.40;;
51312;SDS011;37397;53.226;10.400;2022-07-30T13:02:44;7.43;;;3.95;;
51312;SDS011;37397;53.226;10.400;2022-07-30T13:05:11;7.03;;;3.78;;
51312;SDS011;37397;53.226;10.400;2022-07-30T13:07:53;7.63;;;3.70;;
51312;SDS011;37397;53.226;10.400;2022-07-30T13:10:26;6.78;;;3.40;;
51312;SDS011;37397;53.226;10.400;2022-07-30T13:12:56;8.40;;;3.15;;
51312;SDS011;37397;53.226;10.400;2022-07-30T13:15:24;7.68;;;3.08;;
51312;SDS011;37397;53.226;10.400;2022-07-30T13:17:51;7.03;;;3.60;;
51312;SDS011;37397;53.226;10.400;2022-07-30T13:20:18;7.45;;;3.55;;
51312;SDS011;37397;53.226;10.400;2022-07-30T13:22:46;7.18;;;3.22;;
51312;SDS011;37397;53.226;10.400;2022-07-30T13:25:12;7.40;;;3.67;;
51312;SDS011;37397;53.226;10.400;2022-07-30T13:27:39;5.75;;;3.22;;
51312;SDS011;37397;53.226;10.400;2022-07-30T13:30:05;7.13;;;3.50;;
51312;SDS011;37397;53.226;10.400;2022-07-30T13:32:32;5.80;;;3.15;;
51312;SDS011;37397;53.226;10.400;2022-07-30T13:35:00;7.00;;;3.72;;
51312;SDS011;37397;53.226;10.400;2022-07-30T13:37:27;6.82;;;3.35;;
51312;SDS011;37397;53.226;10.400;2022-07-30T13:40:04;6.80;;;3.60;;
51312;SDS011;37397;53.226;10.400;2022-07-30T13:42:31;9.68;;;3.90;;
51312;SDS011;37397;53.226;10.400;2022-07-30T13:44:58;8.05;;;3.60;;
51312;SDS011;37397;53.226;10.400;2022-07-30T13:47:24;8.43;;;3.63;;
51312;SDS011;37397;53.226;10.400;2022-07-30T13:49:52;5.32;;;3.20;;
51312;SDS011;37397;53.226;10.400;2022-07-30T13:52:19;6.15;;;3.40;;
51312;SDS011;37397;53.226;10.400;2022-07-30T13:54:46;9.88;;;3.95;;
51312;SDS011;37397;53.226;10.400;2022-07-30T13:57:12;8.05;;;3.72;;
51312;SDS011;37397;53.226;10.400;2022-07-30T13:59:38;9.02;;;3.60;;
51312;SDS011;37397;53.226;10.400;2022-07-30T14:02:05;7.40;;;3.42;;
51312;SDS011;37397;53.226;10.400;2022-07-30T14:04:32;8.88;;;3.50;;
51312;SDS011;37397;53.226;10.400;2022-07-30T14:06:58;5.38;;;3.17;;
51312;SDS011;37397;53.226;10.400;2022-07-30T14:09:25;8.82;;;3.60;;
51312;SDS011;37397;53.226;10.400;2022-07-30T14:11:52;5.57;;;3.40;;
51312;SDS011;37397;53.226;10.400;2022-07-30T14:14:19;6.82;;;3.42;;
51312;SDS011;37397;53.226;10.400;2022-07-30T14:16:48;8.20;;;3.70;;
51312;SDS011;37397;53.226;10.400;2022-07-30T14:19:19;8.05;;;3.80;;
51312;SDS011;37397;53.226;10.400;2022-07-30T14:21:50;6.10;;;3.45;;
51312;SDS011;37397;53.226;10.400;2022-07-30T14:24:20;6.22;;;3.40;;
51312;SDS011;37397;53.226;10.400;2022-07-30T14:26:48;9.73;;;3.83;;
51312;SDS011;37397;53.226;10.400;2022-07-30T14:29:22;12.60;;;4.25;;
51312;SDS011;37397;53.226;10.400;2022-07-30T14:31:49;7.47;;;3.75;;
51312;SDS011;37397;53.226;10.400;2022-07-30T14:34:15;11.38;;;3.65;;
51312;SDS011;37397;53.226;10.400;2022-07-30T14:36:44;7.38;;;3.72;;
51312;SDS011;37397;53.226;10.400;2022-07-30T14:39:10;6.95;;;3.47;;
51312;SDS011;37397;53.226;10.400;2022-07-30T14:41:37;6.57;;;3.33;;
51312;SDS011;37397;53.226;10.400;2022-07-30T14:44:04;8.63;;;3.40;;
51312;SDS011;37397;53.226;10.400;2022-07-30T14:46:30;5.70;;;3.42;;
51312;SDS011;37397;53.226;10.400;2022-07-30T14:48:57;8.63;;;3.80;;
51312;SDS011;37397;53.226;10.400;2022-07-30T14:51:24;10.50;;;3.85;;
51312;SDS011;37397;53.226;10.400;2022-07-30T14:53:53;6.75;;;3.67;;
51312;SDS011;37397;53.226;10.400;2022-07-30T14:56:22;8.07;;;3.40;;
51312;SDS011;37397;53.226;10.400;2022-07-30T14:58:50;8.57;;;3.97;;
51312;SDS011;37397;53.226;10.400;2022-07-30T15:01:17;9.05;;;3.60;;
51312;SDS011;37397;53.226;10.400;2022-07-30T15:03:44;6.30;;;3.47;;
51312;SDS011;37397;53.226;10.400;2022-07-30T15:06:11;7.53;;;3.75;;
51312;SDS011;37397;53.226;10.400;2022-07-30T15:08:40;8.23;;;3.53;;
51312;SDS011;37397;53.226;10.400;2022-07-30T15:11:06;8.73;;;4.07;;
51312;SDS011;37397;53.226;10.400;2022-07-30T15:13:35;8.32;;;3.50;;
51312;SDS011;37397;53.226;10.400;2022-07-30T15:16:05;6.38;;;3.60;;
51312;SDS011;37397;53.226;10.400;2022-07-30T15:18:32;8.13;;;3.80;;
51312;SDS011;37397;53.226;10.400;2022-07-30T15:20:59;7.93;;;3.58;;
51312;SDS011;37397;53.226;10.400;2022-07-30T15:23:25;8.05;;;3.47;;
51312;SDS011;37397;53.226;10.400;2022-07-30T15:25:52;9.85;;;3.83;;
51312;SDS011;37397;53.226;10.400;2022-07-30T15:28:18;7.72;;;3.75;;
51312;SDS011;37397;53.226;10.400;2022-07-30T15:30:45;7.22;;;3.50;;
51312;SDS011;37397;53.226;10.400;2022-07-30T15:33:11;7.97;;;3.63;;
51312;SDS011;37397;53.226;10.400;2022-07-30T15:35:38;9.85;;;3.85;;
51312;SDS011;37397;53.226;10.400;2022-07-30T15:38:04;7.00;;;3.50;;